CSUN New Campus Station -PST Time - Most Recent Data on bottom of page




           Date/Time      Avg      Avg      Max     Wind      Avg      Max      Min      Avg      Avg    Total      Avg     Batt
                         Wind     Wind     Wind      Dir     Temp     Temp     Temp       RH      Bar     Rain    Solar     Volt
                      Spd MPH      Dir  Spd MPH   at Max    Deg_F    Deg_F    Deg_F        % Press_mb   Inches     W/m2      Min
--------------------------------------------------------------------------------------------------------------------------------
    05/25/2015 00:00      1.8       51      3.7       63     57.9     58.1     57.6       67     1013     0.00        0     13.4
    05/25/2015 00:15      1.3       48      3.0       30     57.8     58.0     57.5       68     1013     0.00        0     13.4
    05/25/2015 00:30      0.9       61      2.6       46     57.6     58.0     57.3       69     1013     0.00        0     13.4
    05/25/2015 00:45      0.6       86      1.8      105     57.3     57.5     57.0       69     1013     0.00        0     13.4
    05/25/2015 01:00      0.0        0      0.0       56     56.7     57.2     56.3       72     1013     0.00        0     13.5
    05/25/2015 01:15      0.1       61      0.9       61     56.2     56.6     56.0       73     1013     0.00        0     13.5
    05/25/2015 01:30      0.3       38      1.4       26     56.1     56.3     55.8       74     1013     0.00        0     13.5
    05/25/2015 01:45      0.7       56      2.2       28     55.9     56.2     55.6       73     1013     0.00        0     13.5
    05/25/2015 02:00      0.4       63      1.2       47     55.8     56.1     55.4       73     1013     0.00        0     13.5
    05/25/2015 02:15      0.3       44      1.4       73     55.3     55.7     55.0       74     1013     0.00        0     13.5
    05/25/2015 02:30      0.5       57      1.9       54     55.3     55.5     55.0       74     1013     0.00        0     13.5
    05/25/2015 02:45      1.0       50      2.4       32     55.4     55.7     55.2       73     1013     0.00        0     13.5
    05/25/2015 03:00      1.1       51      2.7       44     55.4     55.6     55.2       73     1012     0.00        0     13.5
    05/25/2015 03:15      0.7       46      2.7       33     55.2     55.6     54.8       74     1012     0.00        0     13.5
    05/25/2015 03:30      0.8       28      2.4       29     54.9     55.2     54.4       74     1012     0.00        0     13.5
    05/25/2015 03:45      0.2      278      1.0      249     53.8     54.6     53.3       77     1012     0.00        0     13.5
    05/25/2015 04:00      0.1      298      1.1      299     53.4     53.8     53.1       78     1012     0.00        0     13.5
    05/25/2015 04:15      0.0      306      0.0      306     53.0     53.3     52.6       78     1012     0.00        0     13.5
    05/25/2015 04:30      0.1       73      1.0       79     52.6     52.9     52.4       80     1012     0.00        0     13.5
    05/25/2015 04:45      0.7      127      2.5      143     52.5     52.7     52.3       81     1013     0.00        2     13.5
    05/25/2015 05:00      0.6      135      2.3      144     52.7     53.0     52.4       82     1013     0.00        6     13.5
    05/25/2015 05:15      0.1      285      1.2      291     52.7     53.0     52.5       82     1013     0.00       15     13.5
    05/25/2015 05:30      0.7       43      2.6       30     53.1     53.9     52.5       80     1013     0.00       28     13.5
    05/25/2015 05:45      1.4       21      2.7       32     54.0     54.5     53.6       77     1013     0.00       41     13.5
    05/25/2015 06:00      2.4       36      5.8       43     54.9     55.5     54.4       75     1014     0.00       95     13.5
    05/25/2015 06:15      3.1       53      5.5       30     55.6     56.4     55.1       73     1014     0.00      149     13.5
    05/25/2015 06:30      2.6       51      4.4       77     56.4     56.7     56.1       74     1014     0.00      153     13.4
    05/25/2015 06:45      3.5       77      5.7       90     56.4     56.6     56.1       77     1014     0.00       94     13.4
    05/25/2015 07:00      3.4       90      8.4       73     56.1     56.4     55.8       78     1014     0.00       91     13.4
    05/25/2015 07:15      3.1       79      6.9       67     56.5     56.8     56.1       76     1014     0.00      119     13.4
    05/25/2015 07:30      3.7       77      6.5       70     56.9     57.3     56.7       75     1014     0.00      145     13.4
    05/25/2015 07:45      2.6      135      4.9      161     57.3     57.6     57.0       74     1014     0.00      152     13.4
    05/25/2015 08:00      3.2      151      5.3      183     57.7     58.1     57.4       73     1014     0.00      158     13.4
    05/25/2015 08:15      1.4      117      4.2       81     58.0     58.4     57.8       72     1014     0.00      152     13.4
    05/25/2015 08:30      2.6      176      5.0      165     58.2     58.5     58.0       73     1015     0.00      170     13.3
    05/25/2015 08:45      1.8      135      4.1      148     58.5     58.9     58.1       72     1014     0.00      211     13.3
    05/25/2015 09:00      1.9      118      5.5      163     59.2     59.8     58.8       70     1014     0.00      240     13.3
    05/25/2015 09:15      2.0      165      4.3      116     59.7     60.1     59.2       70     1014     0.00      259     13.3
    05/25/2015 09:30      1.9      197      4.8      147     60.6     61.3     59.8       67     1014     0.00      390     13.3
    05/25/2015 09:45      2.8      105      6.3       80     61.5     61.9     60.9       64     1014     0.00      347     13.3
    05/25/2015 10:00      3.3      123      7.4       83     61.7     62.2     61.3       66     1014     0.00      325     13.3
    05/25/2015 10:15      4.3      161      7.8      181     62.1     62.5     61.7       66     1015     0.00      328     13.3
    05/25/2015 10:30      3.9      161      8.1      170     62.6     63.1     62.1       65     1015     0.00      311     13.3
    05/25/2015 10:45      4.0      178      8.3      195     62.3     62.8     61.9       65     1015     0.00      312     13.3
    05/25/2015 11:00      3.6      148      7.5      163     63.0     63.4     62.5       64     1015     0.00      319     13.3
    05/25/2015 11:15      2.8      185      6.3      175     63.1     63.6     62.6       64     1015     0.00      295     13.3
    05/25/2015 11:30      3.8      178      6.2      197     63.2     63.9     62.8       63     1015     0.00      357     13.3
    05/25/2015 11:45      2.7      152      7.2      160     64.1     64.4     63.7       63     1015     0.00      360     13.2
    05/25/2015 12:00      4.3      156      9.6      172     64.5     64.9     63.9       59     1014     0.00      496     13.2
    05/25/2015 12:15      2.3       85      6.5      137     65.1     65.5     64.7       59     1014     0.00      472     13.2
    05/25/2015 12:30      3.4      120      8.7       97     65.7     66.4     65.1       57     1014     0.00      529     13.2
    05/25/2015 12:45      3.8      129      9.3      143     66.8     67.5     66.0       57     1014     0.00      596     13.2
    05/25/2015 13:00      3.1      142     10.1      149     66.9     67.5     66.3       55     1014     0.00      572     13.2
    05/25/2015 13:15      4.0      152     10.2      150     67.7     69.1     67.0       53     1014     0.00      769     13.2
    05/25/2015 13:30      4.2      186     10.7      175     68.2     69.0     67.3       53     1014     0.00      906     13.1
    05/25/2015 13:45      3.6      123      8.2      153     68.8     69.7     68.0       51     1014     0.00      736     13.1
    05/25/2015 14:00      4.0       98     10.1       85     69.2     70.2     68.2       50     1014     0.00      829     13.1
    05/25/2015 14:15      3.8      130      8.6      149     69.7     70.3     68.8       52     1013     0.00      779     13.1
    05/25/2015 14:30      3.1       98      9.8      105     69.9     71.0     69.1       48     1013     0.00      741     13.1
    05/25/2015 14:45      3.8      134      7.9       80     71.0     71.5     70.5       47     1013     0.00      671     13.1
    05/25/2015 15:00      3.9      158      9.0      166     71.3     72.0     70.8       46     1013     0.00      670     13.1
    05/25/2015 15:15      3.6      151      8.3      116     71.2     71.7     70.7       47     1013     0.00      630     13.1
    05/25/2015 15:30      3.8      152      7.3      158     71.4     72.0     70.8       47     1013     0.00      587     13.1
    05/25/2015 15:45      4.9      120     11.2       87     71.6     71.9     71.2       47     1012     0.00      547     13.1
    05/25/2015 16:00      3.5      126      8.6       67     71.4     72.0     70.7       46     1012     0.00      441     13.1
    05/25/2015 16:15      4.2      113     10.8      118     71.7     72.0     71.1       48     1012     0.00      450     13.1
    05/25/2015 16:30      4.5      106     10.5       91     70.9     71.5     70.3       49     1012     0.00      395     13.1
    05/25/2015 16:45      5.0      147      9.1      150     70.3     71.1     69.7       51     1012     0.00      261     13.1
    05/25/2015 17:00      4.0      136      7.8      153     70.1     70.4     69.7       51     1012     0.00      302     13.1
    05/25/2015 17:15      4.5      156      8.6      169     69.2     70.2     68.1       54     1012     0.00      154     13.2
    05/25/2015 17:30      4.3      144      6.9      150     68.5     68.9     68.0       52     1012     0.00      148     13.2
    05/25/2015 17:45      4.1      132      7.7      143     68.2     68.8     67.8       54     1012     0.00       91     13.2
    05/25/2015 18:00      3.3      125      7.5      135     67.8     68.4     67.4       55     1012     0.00       63     13.2
    05/25/2015 18:15      3.2      106      7.4       92     67.2     67.6     66.7       56     1012     0.00       45     13.2
    05/25/2015 18:30      3.0      106      8.2       85     66.2     66.8     65.6       58     1013     0.00       28     13.3
    05/25/2015 18:45      2.8      115      7.3      137     65.3     65.8     64.7       60     1013     0.00       14     13.3
    05/25/2015 19:00      2.8      116      6.8      136     64.4     64.9     63.9       62     1013     0.00        5     13.3
    05/25/2015 19:15      2.8      112      5.7      100     63.6     64.2     63.1       64     1013     0.00        0     13.3
    05/25/2015 19:30      1.8      108      4.7      130     62.9     63.3     62.5       65     1013     0.00        0     13.3
    05/25/2015 19:45      2.4      136      5.1      134     62.0     62.6     61.5       67     1013     0.00        0     13.3
    05/25/2015 20:00      1.5      125      4.5       76     61.8     61.9     61.6       67     1014     0.00        0     13.3
    05/25/2015 20:15      1.9      106      6.0       93     61.9     62.0     61.6       67     1014     0.00        0     13.3
    05/25/2015 20:30      2.1      105      4.6       86     61.7     62.0     61.4       67     1014     0.00        0     13.3
    05/25/2015 20:45      2.0       99      4.8       99     61.4     61.7     61.0       68     1014     0.00        0     13.3
    05/25/2015 21:00      1.8      111      4.6       84     61.2     61.4     61.0       68     1014     0.00        0     13.3
    05/25/2015 21:15      1.6      114      4.0      134     61.1     61.4     60.7       69     1014     0.00        0     13.3
    05/25/2015 21:30      1.7      113      4.4       91     60.9     61.0     60.6       69     1014     0.00        0     13.3
    05/25/2015 21:45      1.4       95      3.7       78     60.8     61.0     60.6       69     1014     0.00        0     13.3
    05/25/2015 22:00      1.5      112      3.6       91     60.8     61.1     60.6       69     1014     0.00        0     13.3
    05/25/2015 22:15      1.1      112      2.7       95     60.8     61.1     60.5       70     1014     0.00        0     13.3
    05/25/2015 22:30      1.4      122      3.0      150     60.6     60.8     60.5       69     1014     0.00        0     13.4
    05/25/2015 22:45      1.1      111      2.9       87     60.6     60.9     60.4       69     1014     0.00        0     13.4
    05/25/2015 23:00      0.5       91      2.0       58     60.7     60.9     60.5       70     1014     0.00        0     13.4
    05/25/2015 23:15      0.5      169      1.8      161     60.4     60.8     60.2       71     1014     0.00        0     13.4
    05/25/2015 23:30      0.0      108      1.4      111     60.4     60.6     60.1       70     1014     0.00        0     13.4
    05/25/2015 23:45      1.0       99      2.1       86     60.6     60.9     60.4       69     1014     0.00        0     13.4
    05/26/2015 00:00      1.2       75      2.8       52     60.8     61.0     60.6       69     1014     0.00        0     13.4
    05/26/2015 00:15      1.5       81      3.2       98     60.7     60.9     60.5       69     1014     0.00        0     13.4
    05/26/2015 00:30      1.3       98      3.3       74     60.5     60.9     60.1       71     1014     0.00        0     13.4
    05/26/2015 00:45      1.9      156      3.2      159     60.2     60.5     60.0       71     1014     0.00        0     13.4
    05/26/2015 01:00      2.3      152      5.3      170     60.1     60.2     59.9       72     1014     0.00        0     13.4
    05/26/2015 01:15      1.2      173      3.8      164     59.9     60.2     59.7       72     1014     0.00        0     13.4
    05/26/2015 01:30      1.4      179      3.5      208     59.9     60.2     59.6       72     1013     0.00        0     13.4
    05/26/2015 01:45      1.2      205      3.0      180     59.8     60.0     59.5       73     1013     0.00        0     13.4
    05/26/2015 02:00      1.6      174      2.8      171     59.8     59.9     59.5       72     1013     0.00        0     13.4
    05/26/2015 02:15      1.4      149      3.2      149     59.8     60.1     59.6       72     1013     0.00        0     13.4
    05/26/2015 02:30      1.7      153      4.8      134     59.8     60.0     59.6       73     1013     0.00        0     13.4
    05/26/2015 02:45      2.0      159      4.8      160     59.8     60.0     59.5       73     1013     0.00        0     13.4
    05/26/2015 03:00      2.6      183      5.2      164     59.6     59.9     59.4       74     1014     0.00        0     13.4
    05/26/2015 03:15      3.0      169      5.6      147     59.5     59.7     59.3       73     1014     0.00        0     13.4
    05/26/2015 03:30      2.6      134      6.5      132     59.5     59.7     59.3       73     1014     0.00        0     13.4
    05/26/2015 03:45      1.8      110      4.1       84     59.6     59.8     59.4       73     1014     0.00        0     13.4
    05/26/2015 04:00      2.9      154      5.9      151     59.5     59.8     59.1       74     1014     0.00        0     13.4
    05/26/2015 04:15      2.8      141      5.5      172     59.2     59.4     58.9       75     1014     0.00        0     13.4
    05/26/2015 04:30      3.5      147      6.1      165     58.8     59.2     58.6       76     1014     0.00        0     13.4
    05/26/2015 04:45      4.7      161      7.4      167     58.5     58.8     58.3       77     1014     0.00        0     13.4
    05/26/2015 05:00      3.2      148      5.5      149     58.4     58.6     58.1       77     1014     0.00        0     13.4
    05/26/2015 05:15      2.4      158      4.1      181     58.2     58.4     57.9       77     1014     0.00        3     13.4
    05/26/2015 05:30      2.4      157      4.3      185     58.0     58.2     57.8       78     1014     0.00        7     13.4
    05/26/2015 05:45      1.3      126      3.1      129     58.2     58.4     58.0       77     1014     0.00       11     13.4
    05/26/2015 06:00      2.0      139      3.5      138     58.1     58.4     58.0       78     1014     0.00       18     13.4
    05/26/2015 06:15      1.8      141      4.0      169     58.1     58.3     57.9       78     1014     0.00       25     13.4
    05/26/2015 06:30      1.8      156      3.9      175     58.1     58.4     57.8       78     1014     0.00       37     13.4
    05/26/2015 06:45      2.5      148      4.1      144     58.2     58.5     58.0       78     1014     0.00       40     13.4
    05/26/2015 07:00      2.2      152      4.1      156     58.4     58.7     58.1       77     1014     0.00       58     13.4
    05/26/2015 07:15      2.0      163      3.4      149     58.8     59.4     58.4       76     1014     0.00       65     13.4
    05/26/2015 07:30      3.0      147      5.3      176     59.3     59.5     59.0       76     1014     0.00       81     13.4
    05/26/2015 07:45      2.6      164      5.5      168     59.2     59.5     58.9       76     1015     0.00       88     13.4
    05/26/2015 08:00      1.1      150      4.2      184     59.4     59.7     58.9       74     1015     0.00      107     13.3
    05/26/2015 08:15      1.6      111      3.8      122     59.9     60.1     59.5       72     1015     0.00      101     13.3
    05/26/2015 08:30      2.1       65      5.1       88     60.0     60.3     59.8       71     1014     0.00      111     13.3
    05/26/2015 08:45      2.0       78      4.5       57     60.1     60.5     59.8       71     1014     0.00      114     13.3
    05/26/2015 09:00      1.7       45      3.8       28     60.4     60.7     60.1       71     1014     0.00      128     13.3
    05/26/2015 09:15      1.5       87      5.2       93     60.8     61.0     60.5       70     1014     0.00      135     13.3
    05/26/2015 09:30      1.3      127      3.7      172     61.2     61.6     60.9       69     1014     0.00      134     13.3
    05/26/2015 09:45      1.7       69      3.9       89     61.2     61.5     60.8       69     1014     0.00      153     13.3
    05/26/2015 10:00      1.4      193      3.5      178     61.7     62.0     61.4       69     1015     0.00      210     13.3
    05/26/2015 10:15      1.1      317      2.7      287     62.0     62.5     61.5       67     1015     0.00      224     13.3
    05/26/2015 10:30      0.6       19      2.3       48     62.9     63.6     62.3       66     1015     0.00      212     13.3
    05/26/2015 10:45      1.6      272      5.0      249     63.3     63.6     62.8       64     1015     0.00      244     13.3
    05/26/2015 11:00      2.0      199      4.0      173     63.9     64.7     63.2       62     1015     0.00      374     13.3
    05/26/2015 11:15      1.4      108      4.2       63     64.7     65.1     64.0       61     1015     0.00      404     13.3
    05/26/2015 11:30      1.7      230      4.4      283     65.0     65.8     64.3       60     1015     0.00      384     13.2
    05/26/2015 11:45      2.5      305      5.7       87     65.6     66.2     64.8       59     1014     0.00      496     13.2
    05/26/2015 12:00      2.6      125      5.5       59     66.8     68.0     66.1       56     1014     0.00      930     13.2
    05/26/2015 12:15      1.7      250      5.4      244     68.4     69.3     67.4       52     1014     0.00      898     13.2
    05/26/2015 12:30      2.6      250      5.7      181     69.2     69.8     68.4       53     1014     0.00      761     13.1
    05/26/2015 12:45      1.7      242      3.8      187     68.9     69.6     68.4       51     1014     0.00      675     13.1
    05/26/2015 13:00      2.8      161      9.1      148     70.3     71.1     69.3       51     1014     0.00      669     13.1
    05/26/2015 13:15      3.5      133      8.5       95     70.3     71.0     69.3       50     1013     0.00      615     13.1
    05/26/2015 13:30      2.7      111      7.2       82     70.8     71.5     70.4       50     1013     0.00      565     13.1
    05/26/2015 13:45      3.7      140      8.2      155     71.8     73.0     70.5       47     1013     0.00      842     13.1
    05/26/2015 14:00      3.8      160      8.6      164     71.7     72.5     71.0       49     1013     0.00      637     13.1
    05/26/2015 14:15      2.6      156      6.0      142     71.8     72.6     71.0       47     1013     0.00      621     13.1
    05/26/2015 14:30      2.6      118      7.3      148     73.0     73.8     72.2       46     1013     0.00      649     13.1
    05/26/2015 14:45      1.9      146      5.8       98     73.1     73.8     72.7       45     1013     0.00      496     13.1
    05/26/2015 15:00      4.2      123     11.3      101     72.5     73.7     71.4       50     1013     0.00      398     13.1
    05/26/2015 15:15      5.7      150     11.1      133     72.4     73.0     71.5       48     1013     0.00      519     13.1
    05/26/2015 15:30      4.0      130      8.0      152     72.8     73.4     72.1       46     1012     0.00      536     13.1
    05/26/2015 15:45      4.3      128      9.1      145     72.7     73.3     72.3       46     1012     0.00      575     13.1
    05/26/2015 16:00      4.1      128      9.4      129     72.6     73.1     72.2       49     1012     0.00      447     13.1
    05/26/2015 16:15      4.3      130      8.6      144     71.6     72.5     70.9       50     1012     0.00      227     13.1
    05/26/2015 16:30      3.4      119      7.5       87     71.1     71.4     70.8       50     1012     0.00      253     13.1
    05/26/2015 16:45      3.2      128      7.3      127     70.8     71.0     70.4       50     1013     0.00      233     13.2
    05/26/2015 17:00      4.1      151      7.5      147     70.4     70.7     70.0       53     1013     0.00      246     13.2
    05/26/2015 17:15      3.1      117      7.1      144     69.8     70.7     69.0       53     1013     0.00      205     13.2
    05/26/2015 17:30      3.4      110      6.8      158     69.3     69.8     68.7       53     1013     0.00      210     13.2
    05/26/2015 17:45      2.5      103      6.3      151     68.5     68.9     68.0       55     1013     0.00       73     13.2
    05/26/2015 18:00      2.3      109      5.6       80     67.6     68.1     67.1       56     1013     0.00       57     13.2
    05/26/2015 18:15      2.4      109      7.2       96     66.8     67.4     66.4       58     1013     0.00       40     13.3
    05/26/2015 18:30      2.2      141      4.7      147     65.9     66.6     65.1       60     1013     0.00       27     13.3
    05/26/2015 18:45      2.6       89      6.3       92     64.9     65.3     64.3       62     1013     0.00       13     13.3
    05/26/2015 19:00      1.6       85      4.5       77     63.9     64.5     63.3       64     1013     0.00        4     13.3
    05/26/2015 19:15      3.1       94      5.6       68     63.0     63.5     62.5       65     1013     0.00        1     13.3
    05/26/2015 19:30      3.2       84      5.9       85     62.3     62.7     62.0       67     1013     0.00        0     13.3
    05/26/2015 19:45      3.1       80      6.3       77     61.9     62.2     61.5       68     1013     0.00        0     13.3
    05/26/2015 20:00      3.0       80      6.1       63     61.3     61.6     61.0       69     1014     0.00        0     13.3
    05/26/2015 20:15      3.2       81      6.2       78     60.9     61.2     60.6       70     1014     0.00        0     13.4
    05/26/2015 20:30      2.5       81      4.6       65     60.5     60.8     60.3       71     1014     0.00        0     13.4
    05/26/2015 20:45      3.0       80      5.4       73     60.1     60.5     59.8       72     1014     0.00        0     13.4
    05/26/2015 21:00      3.3       82      6.4       70     59.7     60.1     59.4       73     1014     0.00        0     13.4
    05/26/2015 21:15      2.9       80      4.7      102     59.3     59.6     59.1       74     1014     0.00        0     13.4
    05/26/2015 21:30      2.4       72      4.9       54     59.1     59.4     58.8       74     1014     0.00        0     13.4
    05/26/2015 21:45      2.7       70      5.3       72     58.8     59.1     58.6       75     1014     0.00        0     13.4
    05/26/2015 22:00      3.8       76      6.8       71     58.5     58.8     58.2       75     1014     0.00        0     13.4
    05/26/2015 22:15      2.1       92      4.5       74     58.1     58.4     57.7       76     1014     0.00        0     13.4
    05/26/2015 22:30      2.6       98      5.4      118     57.5     58.0     57.1       77     1014     0.00        0     13.4
    05/26/2015 22:45      2.7       64      5.4       42     57.1     57.4     56.8       78     1014     0.00        0     13.4
    05/26/2015 23:00      2.6       65      5.4       50     56.8     57.0     56.6       79     1014     0.00        0     13.4
    05/26/2015 23:15      2.4       78      4.7       64     56.5     56.8     56.3       80     1014     0.00        0     13.4
    05/26/2015 23:30      2.4       75      4.2       83     56.3     56.4     56.0       81     1014     0.00        0     13.4
    05/26/2015 23:45      2.2       84      4.3       81     56.2     56.4     56.0       82     1014     0.00        0     13.4
    05/27/2015 00:00      1.8       95      3.9       86     56.2     56.4     56.0       82     1014     0.00        0     13.4
    05/27/2015 00:15      2.4      101      4.8       94     56.3     56.5     56.0       82     1014     0.00        0     13.4
    05/27/2015 00:30      3.2       80      6.9       89     56.2     56.4     56.0       82     1014     0.00        0     13.4
    05/27/2015 00:45      3.7       83      7.4       89     56.2     56.3     56.0       82     1014     0.00        0     13.4
    05/27/2015 01:00      1.6      112      4.2       91     56.4     56.7     56.1       82     1014     0.00        0     13.4
    05/27/2015 01:15      2.1      134      4.9      145     56.3     56.6     56.1       83     1014     0.00        0     13.4
    05/27/2015 01:30      2.3      129      5.7       91     56.3     56.6     56.1       82     1014     0.00        0     13.4
    05/27/2015 01:45      2.3      156      4.3      154     56.3     56.4     56.1       83     1014     0.00        0     13.4
    05/27/2015 02:00      2.3      145      4.3      151     56.2     56.4     56.0       83     1014     0.00        0     13.4
    05/27/2015 02:15      1.8      151      3.8      143     56.3     56.4     56.1       83     1014     0.00        0     13.4
    05/27/2015 02:30      2.0      157      4.3      143     56.3     56.5     56.1       82     1014     0.00        0     13.4
    05/27/2015 02:45      2.2      166      5.0      156     56.2     56.4     56.0       83     1014     0.00        0     13.4
    05/27/2015 03:00      2.6      147      4.7      164     56.1     56.3     55.8       83     1014     0.00        0     13.4
    05/27/2015 03:15      1.5      122      3.2      147     56.3     56.5     56.1       82     1014     0.00        0     13.4
    05/27/2015 03:30      1.5      141      3.2      122     56.3     56.5     56.0       82     1014     0.00        0     13.4
    05/27/2015 03:45      1.0      150      2.8      134     56.2     56.4     56.0       82     1014     0.00        0     13.4
    05/27/2015 04:00      1.0      100      3.9       53     56.3     56.5     56.0       81     1014     0.00        0     13.4
    05/27/2015 04:15      1.5      122      3.7      105     56.5     56.8     56.2       81     1014     0.00        0     13.4
    05/27/2015 04:30      1.3      107      4.2       73     56.6     56.8     56.4       81     1014     0.00        0     13.4
    05/27/2015 04:45      1.6       77      3.6       18     56.6     56.8     56.4       81     1014     0.00        0     13.4
    05/27/2015 05:00      1.9      127      4.6      141     56.6     56.9     56.4       81     1014     0.00        1     13.4
    05/27/2015 05:15      2.2      143      4.3      162     56.6     56.9     56.4       81     1014     0.00        5     13.4
    05/27/2015 05:30      1.6      141      2.9      154     56.8     57.0     56.6       80     1014     0.00       10     13.4
    05/27/2015 05:45      3.0      151      5.5      161     56.8     56.9     56.6       80     1014     0.00       15     13.4
    05/27/2015 06:00      3.2      152      5.9      142     56.7     56.9     56.5       80     1014     0.00       20     13.4
    05/27/2015 06:15      3.6      162      5.7      166     56.7     57.0     56.5       81     1014     0.00       28     13.4
    05/27/2015 06:30      2.4      151      4.6      134     56.7     56.9     56.5       80     1014     0.00       38     13.4
    05/27/2015 06:45      1.6      124      3.4      142     57.0     57.4     56.6       79     1014     0.00       46     13.4
    05/27/2015 07:00      1.9      141      3.9      168     57.2     57.5     57.0       79     1015     0.00       52     13.4
    05/27/2015 07:15      1.8      146      5.0      147     57.2     57.5     56.9       79     1015     0.00       61     13.4
    05/27/2015 07:30      2.5      159      4.3      163     57.4     57.7     57.0       78     1015     0.00       72     13.4
    05/27/2015 07:45      1.9      160      3.8      205     57.6     57.9     57.3       78     1015     0.00       94     13.4
    05/27/2015 08:00      1.4      188      3.2      167     57.9     58.3     57.5       77     1015     0.00      121     13.4
    05/27/2015 08:15      1.5      185      3.7      157     58.3     58.6     58.0       76     1015     0.00      123     13.4
    05/27/2015 08:30      1.4      145      3.4      148     58.6     59.1     58.0       74     1015     0.00      132     13.4
    05/27/2015 08:45      1.1      221      2.8      239     59.1     59.4     58.8       74     1015     0.00      145     13.3
    05/27/2015 09:00      2.2      195      4.0      182     59.4     60.0     59.0       73     1014     0.00      227     13.3
    05/27/2015 09:15      1.8      217      4.0      192     59.9     60.3     59.4       70     1014     0.00      279     13.3
    05/27/2015 09:30      2.5      192      5.5      168     60.5     61.0     60.1       70     1014     0.00      312     13.3
    05/27/2015 09:45      2.2      254      5.0      291     60.8     61.4     60.3       68     1014     0.00      330     13.3
    05/27/2015 10:00      3.3      178      6.8      140     61.4     61.9     60.9       69     1015     0.00      392     13.3
    05/27/2015 10:15      3.8      181      8.6      199     61.8     62.5     61.4       67     1015     0.00      455     13.3
    05/27/2015 10:30      2.6      149      6.0      136     62.9     63.6     62.0       64     1015     0.00      473     13.2
    05/27/2015 10:45      3.3      126      7.4      160     63.8     64.3     63.3       63     1015     0.00      713     13.2
    05/27/2015 11:00      2.2       70      6.1       39     64.6     66.2     63.7       58     1014     0.00      895     13.2
    05/27/2015 11:15      3.1      144      6.0      124     65.9     66.6     65.3       59     1014     0.00      905     13.2
    05/27/2015 11:30      1.4      153      5.6      160     66.5     67.6     65.7       56     1014     0.00      914     13.2
    05/27/2015 11:45      2.8      171      7.1      177     67.7     68.7     67.0       56     1014     0.00      923     13.2
    05/27/2015 12:00      2.6      107      6.9      153     68.8     69.3     68.4       53     1014     0.00      919     13.1
    05/27/2015 12:15      3.0      146      6.6      186     69.7     71.0     68.8       50     1014     0.00      922     13.1
    05/27/2015 12:30      2.7      208      5.5      158     71.2     71.5     70.3       47     1014     0.00      920     13.1
    05/27/2015 12:45      1.9      101      5.8       81     72.0     73.1     70.8       45     1013     0.00      914     13.1
    05/27/2015 13:00      2.3      161      6.8      194     72.7     73.3     72.2       43     1013     0.00      905     13.1
    05/27/2015 13:15      2.4      230      5.6      255     74.3     75.3     73.0       40     1013     0.00      891     13.1
    05/27/2015 13:30      2.2      266      6.6      240     74.5     75.2     73.8       40     1013     0.00      874     13.1
    05/27/2015 13:45      1.6      346      4.7      339     75.3     76.2     74.3       37     1013     0.00      853     13.1
    05/27/2015 14:00      2.0      130      8.2      164     76.9     77.7     76.0       40     1013     0.00      830     13.1
    05/27/2015 14:15      5.0      144     10.4      182     76.4     76.9     75.5       40     1013     0.00      796     13.1
    05/27/2015 14:30      3.6      134     10.2      138     76.1     76.6     75.5       42     1013     0.00      761     13.1
    05/27/2015 14:45      4.6      126      8.9      167     76.8     77.0     76.4       40     1012     0.00      702     13.0
    05/27/2015 15:00      5.6      137     10.1      151     76.9     77.6     76.2       41     1012     0.00      687     13.1
    05/27/2015 15:15      7.1      140     11.5      154     76.5     76.9     76.0       40     1012     0.00      646     13.1
    05/27/2015 15:30      5.4      134     11.3      158     75.9     76.3     75.5       41     1012     0.00      604     13.1
    05/27/2015 15:45      5.6      136     11.4      163     75.0     75.6     74.4       44     1012     0.00      557     13.1
    05/27/2015 16:00      3.9      124      9.6      127     75.0     75.5     74.6       42     1012     0.00      509     13.1
    05/27/2015 16:15      4.3      105      9.7      104     74.6     75.2     74.2       43     1012     0.00      463     13.1
    05/27/2015 16:30      3.9      111      8.9      101     74.0     74.5     73.5       45     1012     0.00      415     13.1
    05/27/2015 16:45      4.1      116      8.8      158     73.8     74.3     73.1       45     1012     0.00      369     13.1
    05/27/2015 17:00      4.1      113      8.6      110     72.9     73.3     72.3       46     1012     0.00      320     13.1
    05/27/2015 17:15      3.9      107      8.7      115     72.5     73.3     71.9       47     1012     0.00      270     13.1
    05/27/2015 17:30      3.6      113      7.7      103     71.7     72.3     71.0       49     1012     0.00      169     13.1
    05/27/2015 17:45      3.8      105      8.2       91     70.8     71.3     70.3       49     1012     0.00       45     13.2
    05/27/2015 18:00      3.4      103      9.0      100     69.9     70.8     69.4       52     1012     0.00       34     13.2
    05/27/2015 18:15      3.8      102      8.4       90     68.6     69.5     68.0       55     1012     0.00       28     13.2
    05/27/2015 18:30      3.0       98      7.9      110     67.6     68.0     67.3       56     1013     0.00       21     13.2
    05/27/2015 18:45      3.5       70      7.4       69     66.8     67.5     66.2       58     1013     0.00       14     13.3
    05/27/2015 19:00      3.7       76      6.8       73     66.1     66.4     65.7       59     1013     0.00        6     13.3
    05/27/2015 19:15      3.4       70      6.3       90     65.2     65.8     64.8       61     1013     0.00        1     13.3
    05/27/2015 19:30      2.8       67      5.2       75     64.6     65.1     64.1       62     1013     0.00        0     13.3
    05/27/2015 19:45      3.6       60      7.0       46     63.9     64.5     63.4       63     1013     0.00        0     13.3
    05/27/2015 20:00      3.1       69      7.1       69     63.1     63.6     62.7       65     1013     0.00        0     13.3
    05/27/2015 20:15      4.0       72      6.9       67     62.5     62.9     62.1       66     1013     0.00        0     13.3
    05/27/2015 20:30      3.1       66      5.9       61     62.0     62.4     61.6       68     1014     0.00        0     13.3
    05/27/2015 20:45      2.4       70      5.0       69     61.6     61.9     61.4       68     1014     0.00        0     13.3
    05/27/2015 21:00      2.0       76      4.6       49     61.4     61.7     61.1       69     1014     0.00        0     13.4
    05/27/2015 21:15      1.7       72      4.0       72     61.1     61.4     60.8       70     1014     0.00        0     13.4
    05/27/2015 21:30      1.2       85      3.3       82     60.9     61.2     60.7       70     1014     0.00        0     13.4
    05/27/2015 21:45      1.5      150      2.4      166     60.2     60.8     59.9       72     1014     0.00        0     13.4
    05/27/2015 22:00      0.8      158      2.0      163     59.8     60.1     59.5       73     1014     0.00        0     13.4
    05/27/2015 22:15      0.8       75      1.9       46     59.7     60.1     59.4       72     1014     0.00        0     13.4
    05/27/2015 22:30      1.3       79      2.3       91     60.0     60.2     59.8       73     1014     0.00        0     13.4
    05/27/2015 22:45      1.8       69      3.5       75     59.8     60.1     59.5       73     1014     0.00        0     13.4
    05/27/2015 23:00      2.1       68      4.3       64     59.5     59.7     59.2       74     1014     0.00        0     13.4
    05/27/2015 23:15      2.2       60      6.3       81     59.3     59.5     59.0       74     1014     0.00        0     13.4
    05/27/2015 23:30      2.5       73      4.5       73     59.0     59.2     58.7       75     1014     0.00        0     13.4
    05/27/2015 23:45      1.6       65      4.0       39     58.7     58.9     58.5       75     1014     0.00        0     13.4
    05/28/2015 00:00      1.4       77      3.1       97     58.5     58.8     58.2       76     1014     0.00        0     13.4
    05/28/2015 00:15      1.3       71      2.6       68     58.3     58.5     58.1       76     1014     0.00        0     13.4
    05/28/2015 00:30      1.2       74      2.6       80     58.1     58.3     57.8       77     1014     0.00        0     13.4
    05/28/2015 00:45      0.4      149      1.8       88     57.4     58.0     56.9       79     1013     0.00        0     13.4
    05/28/2015 01:00      0.0        0      0.0      226     56.8     57.1     56.4       80     1014     0.00        0     13.4
    05/28/2015 01:15      0.0        0      0.0      271     56.5     56.7     56.2       81     1013     0.00        0     13.4
    05/28/2015 01:30      0.0       28      0.6       29     56.2     56.5     56.0       82     1013     0.00        0     13.5
    05/28/2015 01:45      0.0        0      0.0       27     56.0     56.3     55.6       82     1013     0.00        0     13.5
    05/28/2015 02:00      0.0        0      0.0       26     55.7     55.8     55.4       83     1013     0.00        0     13.5
    05/28/2015 02:15      0.0      121      0.7      122     55.4     55.7     55.1       83     1013     0.00        0     13.5
    05/28/2015 02:30      0.0        0      0.0      134     55.0     55.4     54.7       84     1013     0.00        0     13.5
    05/28/2015 02:45      0.0        0      0.0       98     54.8     55.0     54.5       84     1013     0.00        0     13.5
    05/28/2015 03:00      0.0      132      0.4      133     54.7     55.0     54.5       85     1013     0.00        0     13.5
    05/28/2015 03:15      0.2      156      1.1      164     54.6     54.8     54.4       85     1013     0.00        0     13.5
    05/28/2015 03:30      0.0      246      0.6      244     54.4     54.7     54.1       85     1013     0.00        0     13.5
    05/28/2015 03:45      0.0      300      0.5      299     54.0     54.3     53.7       86     1013     0.00        0     13.5
    05/28/2015 04:00      0.0      335      0.6      344     53.9     54.1     53.7       86     1013     0.00        0     13.5
    05/28/2015 04:15      0.6       46      1.8       52     54.3     54.7     54.0       86     1013     0.00        0     13.5
    05/28/2015 04:30      0.3       49      2.0       34     54.3     54.7     53.9       85     1013     0.00        0     13.5
    05/28/2015 04:45      1.9       48      3.6       59     54.4     54.6     54.1       85     1013     0.00        2     13.5
    05/28/2015 05:00      1.4       41      2.7       37     54.4     54.7     54.1       84     1013     0.00        6     13.5
    05/28/2015 05:15      0.7       46      2.1       43     54.2     54.4     54.0       84     1014     0.00       18     13.5
    05/28/2015 05:30      0.5       58      2.1       69     54.3     54.7     54.0       84     1014     0.00       30     13.5
    05/28/2015 05:45      0.8       60      2.3       81     55.0     55.2     54.5       83     1014     0.00       41     13.5
    05/28/2015 06:00      0.8       75      2.1       88     56.1     57.3     55.1       78     1014     0.00      127     13.5
    05/28/2015 06:15      0.8      158      2.1      120     57.7     58.4     57.0       75     1014     0.00      169     13.4
    05/28/2015 06:30      1.3       86      3.9       69     58.3     59.1     57.5       73     1014     0.00      220     13.4
    05/28/2015 06:45      1.6       97      4.2       79     59.0     59.4     58.6       73     1014     0.00      277     13.4
    05/28/2015 07:00      2.2      111      4.9      157     59.7     60.3     59.0       71     1014     0.00      329     13.4
    05/28/2015 07:15      2.7      123      5.5      111     60.2     60.6     59.9       72     1014     0.00      389     13.3
    05/28/2015 07:30      3.2       93      6.1       79     59.8     60.3     59.1       72     1014     0.00      435     13.3
    05/28/2015 07:45      2.9      113      6.4      105     59.7     60.0     59.3       74     1014     0.00      442     13.3
    05/28/2015 08:00      2.6      117      5.5      153     60.2     60.9     59.7       73     1015     0.00      415     13.3
    05/28/2015 08:15      2.8      132      5.8      149     61.0     61.4     60.3       71     1015     0.00      529     13.3
    05/28/2015 08:30      2.2      105      5.0       74     62.4     63.2     61.2       66     1014     0.00      617     13.3
    05/28/2015 08:45      2.8      139      5.2       95     63.3     63.9     62.8       64     1014     0.00      637     13.3
    05/28/2015 09:00      1.8      115      4.4      104     64.6     65.5     63.4       61     1014     0.00      677     13.2
    05/28/2015 09:15      2.5      166      6.3      173     65.5     66.6     65.0       58     1014     0.00      726     13.2
    05/28/2015 09:30      2.5      117      5.9      164     67.0     67.8     66.3       57     1014     0.00      773     13.2
    05/28/2015 09:45      2.2      143      6.0      144     68.1     69.1     67.5       55     1014     0.00      798     13.2
    05/28/2015 10:00      2.6      130      6.8       68     68.7     69.5     67.9       53     1014     0.00      829     13.2
    05/28/2015 10:15      3.1      177      6.6      141     69.7     71.0     68.7       52     1014     0.00      849     13.2
    05/28/2015 10:30      2.6      114      6.5      178     70.5     71.3     69.9       49     1014     0.00      873     13.2
    05/28/2015 10:45      3.2      128      7.5      155     71.8     72.8     71.1       47     1014     0.00      890     13.1
    05/28/2015 11:00      3.5      136      7.8      196     72.4     73.1     71.7       49     1014     0.00      903     13.1
    05/28/2015 11:15      3.3      143      7.2      121     73.6     74.3     72.9       46     1014     0.00      917     13.1
    05/28/2015 11:30      4.8      136      9.9      143     74.5     75.2     73.3       43     1014     0.00      926     13.1
    05/28/2015 11:45      3.5      134      8.9      176     75.5     76.6     74.7       41     1013     0.00      928     13.1
    05/28/2015 12:00      3.4      113     10.3      152     76.4     76.9     76.0       43     1013     0.00      924     13.1
    05/28/2015 12:15      4.5      142      8.6      142     77.1     77.7     76.5       43     1013     0.00      926     13.1
    05/28/2015 12:30      3.7      132      9.2      126     77.8     79.0     76.8       41     1013     0.00      922     13.1
    05/28/2015 12:45      4.3      124     10.4       62     78.1     78.6     77.7       36     1013     0.00      913     13.1
    05/28/2015 13:00      3.4      133      7.8       60     78.7     79.4     77.5       35     1013     0.00      902     13.1
    05/28/2015 13:15      4.5      129     10.2       85     79.6     80.2     79.1       36     1013     0.00      876     13.1
    05/28/2015 13:30      3.2       91      7.5       83     79.8     80.6     79.0       35     1012     0.00      867     13.1
    05/28/2015 13:45      4.4      112      7.8       88     80.1     80.6     79.5       35     1012     0.00      840     13.0
    05/28/2015 14:00      3.4       99      8.9       96     80.8     81.7     79.2       36     1012     0.00      826     13.0
    05/28/2015 14:15      4.2      121      8.6      143     81.6     82.4     80.9       33     1012     0.00      796     13.0
    05/28/2015 14:30      4.3      126      8.6       79     81.3     82.0     80.9       34     1012     0.00      754     13.0
    05/28/2015 14:45      4.1      121      8.7       96     82.2     82.9     81.4       34     1011     0.00      719     13.0
    05/28/2015 15:00      4.3      124      9.4      145     82.0     83.1     80.9       33     1011     0.00      698     13.0
    05/28/2015 15:15      4.1      130      9.1      154     81.6     82.1     81.1       34     1011     0.00      658     13.0
    05/28/2015 15:30      4.4      112      7.6       83     81.5     82.0     80.9       33     1011     0.00      585     13.0
    05/28/2015 15:45      3.5      101      8.1       98     81.6     82.1     81.2       33     1011     0.00      526     13.0
    05/28/2015 16:00      3.2      109      7.7       91     81.9     82.2     81.5       34     1011     0.00      506     13.0
    05/28/2015 16:15      3.4      112      8.0      139     81.9     82.3     81.4       34     1011     0.00      481     13.0
    05/28/2015 16:30      3.4      128      7.3      172     81.9     82.6     81.5       33     1011     0.00      424     13.0
    05/28/2015 16:45      4.2      137      8.4      161     81.3     82.0     80.8       34     1011     0.00      370     13.0
    05/28/2015 17:00      4.1      105      9.5       80     80.3     81.1     79.5       35     1011     0.00      320     13.0
    05/28/2015 17:15      3.3      115      7.7      145     79.6     80.1     79.2       36     1011     0.00      270     13.1
    05/28/2015 17:30      3.8      118      8.5      142     79.0     79.7     78.1       38     1011     0.00      173     13.1
    05/28/2015 17:45      3.5      112      7.3       85     77.8     78.3     77.2       39     1011     0.00       42     13.1
    05/28/2015 18:00      3.7       99      7.8       74     76.8     77.4     76.4       40     1011     0.00       33     13.1
    05/28/2015 18:15      3.6       90      7.6       85     76.1     76.7     75.5       42     1011     0.00       27     13.2